sensor_id;sensor_type;location;lat;lon;timestamp;pressure;altitude;pressure_sealevel;temperature;humidity
13420;BME280;6781;58.440;15.470;2023-05-19T00:00:07;102265.63;;;7.35;100.00
13420;BME280;6781;58.440;15.470;2023-05-19T00:02:35;102219.50;;;7.04;100.00
13420;BME280;6781;58.440;15.470;2023-05-19T00:05:04;102016.47;;;5.74;100.00
13420;BME280;6781;58.440;15.470;2023-05-19T00:07:34;102155.88;;;6.60;100.00
13420;BME280;6781;58.440;15.470;2023-05-19T00:10:04;102264.34;;;7.24;100.00
13420;BME280;6781;58.440;15.470;2023-05-19T00:12:31;102263.75;;;7.17;100.00
13420;BME280;6781;58.440;15.470;2023-05-19T00:14:59;102228.81;;;6.87;100.00
13420;BME280;6781;58.440;15.470;2023-05-19T00:17:26;102175.94;;;6.51;100.00
13420;BME280;6781;58.440;15.470;2023-05-19T00:19:53;102270.59;;;6.95;100.00
13420;BME280;6781;58.440;15.470;2023-05-19T00:22:20;102153.22;;;6.14;100.00
13420;BME280;6781;58.440;15.470;2023-05-19T00:24:48;102218.34;;;6.43;100.00
13420;BME280;6781;58.440;15.470;2023-05-19T00:27:15;102096.63;;;5.63;100.00
13420;BME280;6781;58.440;15.470;2023-05-19T00:29:42;102274.09;;;6.70;100.00
13420;BME280;6781;58.440;15.470;2023-05-19T00:32:09;102134.06;;;5.72;100.00
13420;BME280;6781;58.440;15.470;2023-05-19T00:34:36;102243.59;;;6.33;100.00
13420;BME280;6781;58.440;15.470;2023-05-19T00:37:03;102192.50;;;5.96;100.00
13420;BME280;6781;58.440;15.470;2023-05-19T00:39:30;102303.34;;;6.44;100.00
13420;BME280;6781;58.440;15.470;2023-05-19T00:41:59;102203.56;;;5.72;100.00
13420;BME280;6781;58.440;15.470;2023-05-19T00:44:27;102318.22;;;6.36;100.00
13420;BME280;6781;58.440;15.470;2023-05-19T00:46:54;102103.50;;;5.11;100.00
13420;BME280;6781;58.440;15.470;2023-05-19T00:49:21;102206.28;;;5.67;100.00
13420;BME280;6781;58.440;15.470;2023-05-19T00:51:48;102054.88;;;4.49;100.00
13420;BME280;6781;58.440;15.470;2023-05-19T00:54:15;102065.38;;;4.70;100.00
13420;BME280;6781;58.440;15.470;2023-05-19T00:56:42;102317.63;;;6.02;100.00
13420;BME280;6781;58.440;15.470;2023-05-19T00:59:11;102218.06;;;5.48;100.00
13420;BME280;6781;58.440;15.470;2023-05-19T01:01:38;102283.13;;;6.07;100.00
13420;BME280;6781;58.440;15.470;2023-05-19T01:04:05;102127.81;;;5.01;100.00
13420;BME280;6781;58.440;15.470;2023-05-19T01:06:35;102232.22;;;5.61;100.00
13420;BME280;6781;58.440;15.470;2023-05-19T01:09:03;102077.06;;;4.80;100.00
13420;BME280;6781;58.440;15.470;2023-05-19T01:11:30;102159.66;;;5.23;100.00
13420;BME280;6781;58.440;15.470;2023-05-19T01:13:57;102335.19;;;6.17;100.00
13420;BME280;6781;58.440;15.470;2023-05-19T01:16:29;102376.38;;;6.17;100.00
13420;BME280;6781;58.440;15.470;2023-05-19T01:19:00;102308.22;;;6.01;100.00
13420;BME280;6781;58.440;15.470;2023-05-19T01:22:17;102180.53;;;5.14;100.00
13420;BME280;6781;58.440;15.470;2023-05-19T01:25:14;102266.06;;;5.49;100.00
13420;BME280;6781;58.440;15.470;2023-05-19T01:31:00;102171.53;;;4.72;100.00
13420;BME280;6781;58.440;15.470;2023-05-19T01:33:31;102335.53;;;5.49;100.00
13420;BME280;6781;58.440;15.470;2023-05-19T01:36:02;102381.63;;;5.86;100.00
13420;BME280;6781;58.440;15.470;2023-05-19T01:38:29;102175.06;;;4.68;100.00
13420;BME280;6781;58.440;15.470;2023-05-19T01:40:59;102084.25;;;4.10;100.00
13420;BME280;6781;58.440;15.470;2023-05-19T01:43:28;102238.16;;;5.09;100.00
13420;BME280;6781;58.440;15.470;2023-05-19T01:45:56;102364.00;;;5.72;100.00
13420;BME280;6781;58.440;15.470;2023-05-19T01:48:26;102360.63;;;5.70;100.00
13420;BME280;6781;58.440;15.470;2023-05-19T01:50:53;102344.50;;;5.36;100.00
13420;BME280;6781;58.440;15.470;2023-05-19T01:53:21;102316.94;;;5.39;100.00
13420;BME280;6781;58.440;15.470;2023-05-19T01:55:51;102357.16;;;5.71;100.00
13420;BME280;6781;58.440;15.470;2023-05-19T01:58:23;102357.06;;;5.74;100.00
13420;BME280;6781;58.440;15.470;2023-05-19T02:01:01;102357.81;;;5.50;100.00
13420;BME280;6781;58.440;15.470;2023-05-19T02:03:41;102313.25;;;5.48;100.00
13420;BME280;6781;58.440;15.470;2023-05-19T02:08:56;102296.69;;;5.29;100.00
13420;BME280;6781;58.440;15.470;2023-05-19T02:11:28;102158.59;;;4.45;100.00
13420;BME280;6781;58.440;15.470;2023-05-19T02:14:02;102247.09;;;4.96;100.00
13420;BME280;6781;58.440;15.470;2023-05-19T02:16:32;102361.00;;;5.58;100.00
13420;BME280;6781;58.440;15.470;2023-05-19T02:19:03;102313.81;;;5.30;100.00
13420;BME280;6781;58.440;15.470;2023-05-19T02:21:30;102149.41;;;4.06;100.00
13420;BME280;6781;58.440;15.470;2023-05-19T02:23:57;102378.38;;;5.50;100.00
13420;BME280;6781;58.440;15.470;2023-05-19T02:26:24;102291.09;;;4.85;100.00
13420;BME280;6781;58.440;15.470;2023-05-19T02:28:51;102183.63;;;4.37;100.00
13420;BME280;6781;58.440;15.470;2023-05-19T02:31:18;102134.88;;;4.05;100.00
13420;BME280;6781;58.440;15.470;2023-05-19T02:33:45;102210.69;;;4.50;100.00
13420;BME280;6781;58.440;15.470;2023-05-19T02:36:13;102374.38;;;5.40;100.00
13420;BME280;6781;58.440;15.470;2023-05-19T02:38:40;102259.16;;;4.63;100.00
13420;BME280;6781;58.440;15.470;2023-05-19T02:41:07;102302.97;;;4.89;100.00
13420;BME280;6781;58.440;15.470;2023-05-19T02:43:35;102183.72;;;4.02;100.00
13420;BME280;6781;58.440;15.470;2023-05-19T02:46:02;102382.53;;;5.24;100.00
13420;BME280;6781;58.440;15.470;2023-05-19T02:48:29;102107.91;;;3.56;100.00
13420;BME280;6781;58.440;15.470;2023-05-19T02:50:56;102277.19;;;4.61;100.00
13420;BME280;6781;58.440;15.470;2023-05-19T02:53:24;102415.28;;;5.19;100.00
13420;BME280;6781;58.440;15.470;2023-05-19T02:55:51;102311.38;;;4.63;100.00
13420;BME280;6781;58.440;15.470;2023-05-19T02:58:18;102408.44;;;5.18;100.00
13420;BME280;6781;58.440;15.470;2023-05-19T03:00:46;102201.84;;;3.96;100.00
13420;BME280;6781;58.440;15.470;2023-05-19T03:03:13;102419.00;;;5.09;100.00
13420;BME280;6781;58.440;15.470;2023-05-19T03:05:40;102415.28;;;5.19;100.00
13420;BME280;6781;58.440;15.470;2023-05-19T03:08:07;102341.66;;;4.84;100.00
13420;BME280;6781;58.440;15.470;2023-05-19T03:10:36;102372.94;;;5.00;100.00
13420;BME280;6781;58.440;15.470;2023-05-19T03:13:03;102343.16;;;4.61;100.00
13420;BME280;6781;58.440;15.470;2023-05-19T03:15:30;102431.38;;;5.26;100.00
13420;BME280;6781;58.440;15.470;2023-05-19T03:17:57;102427.16;;;5.23;100.00
13420;BME280;6781;58.440;15.470;2023-05-19T03:20:24;102412.84;;;5.15;100.00
13420;BME280;6781;58.440;15.470;2023-05-19T03:22:51;102418.53;;;5.24;100.00
13420;BME280;6781;58.440;15.470;2023-05-19T03:25:19;102162.22;;;3.73;100.00
13420;BME280;6781;58.440;15.470;2023-05-19T03:27:47;102398.34;;;5.12;100.00
13420;BME280;6781;58.440;15.470;2023-05-19T03:30:14;102378.00;;;5.03;100.00
13420;BME280;6781;58.440;15.470;2023-05-19T03:32:41;102428.16;;;5.49;100.00
13420;BME280;6781;58.440;15.470;2023-05-19T03:35:08;102421.06;;;5.57;100.00
13420;BME280;6781;58.440;15.470;2023-05-19T03:37:36;102422.75;;;5.58;100.00
13420;BME280;6781;58.440;15.470;2023-05-19T03:40:03;102327.88;;;4.87;100.00
13420;BME280;6781;58.440;15.470;2023-05-19T03:42:31;102311.31;;;4.97;100.00
13420;BME280;6781;58.440;15.470;2023-05-19T03:45:00;102418.19;;;5.68;100.00
13420;BME280;6781;58.440;15.470;2023-05-19T03:47:27;102131.63;;;3.98;100.00
13420;BME280;6781;58.440;15.470;2023-05-19T03:49:54;102431.09;;;5.66;100.00
13420;BME280;6781;58.440;15.470;2023-05-19T03:52:21;102479.13;;;5.67;100.00
13420;BME280;6781;58.440;15.470;2023-05-19T03:54:48;102437.13;;;5.65;100.00
13420;BME280;6781;58.440;15.470;2023-05-19T03:57:15;102437.13;;;5.65;100.00
13420;BME280;6781;58.440;15.470;2023-05-19T03:59:42;102410.56;;;5.65;100.00
13420;BME280;6781;58.440;15.470;2023-05-19T04:02:11;102250.16;;;4.79;100.00
13420;BME280;6781;58.440;15.470;2023-05-19T04:04:39;102355.66;;;5.35;100.00
13420;BME280;6781;58.440;15.470;2023-05-19T04:07:06;102367.91;;;5.56;100.00
13420;BME280;6781;58.440;15.470;2023-05-19T04:09:33;102342.00;;;5.33;100.00
13420;BME280;6781;58.440;15.470;2023-05-19T04:12:00;102131.97;;;4.17;100.00
13420;BME280;6781;58.440;15.470;2023-05-19T04:14:28;102421.63;;;5.98;100.00
13420;BME280;6781;58.440;15.470;2023-05-19T04:16:55;102417.13;;;6.04;100.00
13420;BME280;6781;58.440;15.470;2023-05-19T04:19:25;102303.59;;;5.27;100.00
13420;BME280;6781;58.440;15.470;2023-05-19T04:21:52;102392.03;;;6.11;100.00
13420;BME280;6781;58.440;15.470;2023-05-19T04:24:19;102339.63;;;5.84;100.00
13420;BME280;6781;58.440;15.470;2023-05-19T04:26:46;102245.97;;;5.32;100.00
13420;BME280;6781;58.440;15.470;2023-05-19T04:29:13;102248.13;;;5.19;100.00
13420;BME280;6781;58.440;15.470;2023-05-19T04:31:42;102149.78;;;4.83;100.00
13420;BME280;6781;58.440;15.470;2023-05-19T04:34:09;102405.22;;;6.28;100.00
13420;BME280;6781;58.440;15.470;2023-05-19T04:36:38;102388.00;;;6.30;100.00
13420;BME280;6781;58.440;15.470;2023-05-19T04:39:06;102387.00;;;6.34;100.00
13420;BME280;6781;58.440;15.470;2023-05-19T04:41:36;102382.59;;;6.38;100.00
13420;BME280;6781;58.440;15.470;2023-05-19T04:44:04;102100.50;;;4.69;100.00
13420;BME280;6781;58.440;15.470;2023-05-19T04:46:31;102216.63;;;5.39;100.00
13420;BME280;6781;58.440;15.470;2023-05-19T04:48:58;102247.66;;;5.61;100.00
13420;BME280;6781;58.440;15.470;2023-05-19T04:51:27;102242.22;;;5.70;100.00
13420;BME280;6781;58.440;15.470;2023-05-19T04:53:57;102257.47;;;5.76;100.00
13420;BME280;6781;58.440;15.470;2023-05-19T04:56:24;102207.63;;;5.52;100.00
13420;BME280;6781;58.440;15.470;2023-05-19T04:58:51;102283.97;;;6.08;100.00
13420;BME280;6781;58.440;15.470;2023-05-19T05:01:19;102207.09;;;5.69;100.00
13420;BME280;6781;58.440;15.470;2023-05-19T05:03:50;102405.31;;;6.78;100.00
13420;BME280;6781;58.440;15.470;2023-05-19T05:06:19;102354.47;;;6.57;100.00
13420;BME280;6781;58.440;15.470;2023-05-19T05:08:46;102420.69;;;6.81;100.00
13420;BME280;6781;58.440;15.470;2023-05-19T05:11:16;102459.22;;;7.10;100.00
13420;BME280;6781;58.440;15.470;2023-05-19T05:13:43;102270.53;;;6.25;100.00
13420;BME280;6781;58.440;15.470;2023-05-19T05:16:13;102482.69;;;7.53;100.00
13420;BME280;6781;58.440;15.470;2023-05-19T05:18:40;102385.50;;;7.03;100.00
13420;BME280;6781;58.440;15.470;2023-05-19T05:21:08;102428.22;;;7.35;100.00
13420;BME280;6781;58.440;15.470;2023-05-19T05:23:36;102479.28;;;7.99;100.00
13420;BME280;6781;58.440;15.470;2023-05-19T05:26:08;102515.56;;;8.19;100.00
13420;BME280;6781;58.440;15.470;2023-05-19T05:28:37;102354.50;;;7.28;100.00
13420;BME280;6781;58.440;15.470;2023-05-19T05:31:11;102289.00;;;6.85;100.00
13420;BME280;6781;58.440;15.470;2023-05-19T05:33:38;102564.06;;;8.36;100.00
13420;BME280;6781;58.440;15.470;2023-05-19T05:36:06;102527.69;;;8.17;100.00
13420;BME280;6781;58.440;15.470;2023-05-19T05:38:33;102569.63;;;8.48;100.00
13420;BME280;6781;58.440;15.470;2023-05-19T05:41:00;102582.22;;;8.78;100.00
13420;BME280;6781;58.440;15.470;2023-05-19T05:43:27;102554.09;;;9.12;100.00
13420;BME280;6781;58.440;15.470;2023-05-19T05:45:56;102347.50;;;7.99;100.00
13420;BME280;6781;58.440;15.470;2023-05-19T05:48:23;102526.53;;;9.11;100.00
13420;BME280;6781;58.440;15.470;2023-05-19T05:50:51;102534.81;;;9.40;100.00
13420;BME280;6781;58.440;15.470;2023-05-19T05:53:19;102551.28;;;9.59;100.00
13420;BME280;6781;58.440;15.470;2023-05-19T05:55:47;102528.97;;;9.75;100.00
13420;BME280;6781;58.440;15.470;2023-05-19T05:58:15;102536.19;;;9.88;100.00
13420;BME280;6781;58.440;15.470;2023-05-19T06:00:44;102544.63;;;9.93;100.00
13420;BME280;6781;58.440;15.470;2023-05-19T06:03:14;102439.78;;;9.42;100.00
13420;BME280;6781;58.440;15.470;2023-05-19T06:05:42;102511.91;;;10.09;100.00
13420;BME280;6781;58.440;15.470;2023-05-19T06:08:09;102419.28;;;9.56;100.00
13420;BME280;6781;58.440;15.470;2023-05-19T06:10:36;102487.75;;;10.27;100.00
13420;BME280;6781;58.440;15.470;2023-05-19T06:13:06;102526.38;;;10.51;100.00
13420;BME280;6781;58.440;15.470;2023-05-19T06:15:33;102338.56;;;9.65;100.00
13420;BME280;6781;58.440;15.470;2023-05-19T06:18:03;102424.97;;;10.21;100.00
13420;BME280;6781;58.440;15.470;2023-05-19T06:20:34;102482.91;;;10.73;100.00
13420;BME280;6781;58.440;15.470;2023-05-19T06:23:03;102224.22;;;9.37;100.00
13420;BME280;6781;58.440;15.470;2023-05-19T06:25:31;102347.72;;;10.08;100.00
13420;BME280;6781;58.440;15.470;2023-05-19T06:28:01;102375.53;;;10.41;100.00
13420;BME280;6781;58.440;15.470;2023-05-19T06:30:32;102333.97;;;10.25;100.00
13420;BME280;6781;58.440;15.470;2023-05-19T06:33:01;102496.28;;;11.17;100.00
13420;BME280;6781;58.440;15.470;2023-05-19T06:35:31;102393.91;;;10.71;100.00
13420;BME280;6781;58.440;15.470;2023-05-19T06:37:59;102270.56;;;10.14;100.00
13420;BME280;6781;58.440;15.470;2023-05-19T06:40:26;102303.09;;;10.54;100.00
13420;BME280;6781;58.440;15.470;2023-05-19T06:42:56;102456.84;;;11.59;100.00
13420;BME280;6781;58.440;15.470;2023-05-19T06:45:23;102322.00;;;10.73;100.00
13420;BME280;6781;58.440;15.470;2023-05-19T06:47:50;102308.09;;;11.07;100.00
13420;BME280;6781;58.440;15.470;2023-05-19T06:50:18;102350.88;;;11.49;100.00
13420;BME280;6781;58.440;15.470;2023-05-19T06:52:45;102313.41;;;11.37;100.00
13420;BME280;6781;58.440;15.470;2023-05-19T06:55:14;102195.88;;;10.86;100.00
13420;BME280;6781;58.440;15.470;2023-05-19T06:57:42;102453.31;;;12.55;100.00
13420;BME280;6781;58.440;15.470;2023-05-19T07:00:10;102425.56;;;12.69;100.00
13420;BME280;6781;58.440;15.470;2023-05-19T07:02:43;102267.16;;;12.05;100.00
13420;BME280;6781;58.440;15.470;2023-05-19T07:05:10;102411.94;;;13.09;100.00
13420;BME280;6781;58.440;15.470;2023-05-19T07:07:37;102383.50;;;13.20;100.00
13420;BME280;6781;58.440;15.470;2023-05-19T07:10:15;102406.94;;;13.62;100.00
13420;BME280;6781;58.440;15.470;2023-05-19T07:12:46;102206.97;;;12.54;100.00
13420;BME280;6781;58.440;15.470;2023-05-19T07:15:14;102293.38;;;13.44;100.00
13420;BME280;6781;58.440;15.470;2023-05-19T07:17:41;102194.28;;;12.90;100.00
13420;BME280;6781;58.440;15.470;2023-05-19T07:20:13;102307.72;;;13.91;100.00
13420;BME280;6781;58.440;15.470;2023-05-19T07:22:44;102283.94;;;13.83;100.00
13420;BME280;6781;58.440;15.470;2023-05-19T07:25:10;102311.28;;;14.42;100.00
13420;BME280;6781;58.440;15.470;2023-05-19T07:27:37;102279.25;;;14.13;100.00
13420;BME280;6781;58.440;15.470;2023-05-19T07:30:07;102324.97;;;14.71;100.00
13420;BME280;6781;58.440;15.470;2023-05-19T07:32:34;102210.38;;;14.03;100.00
13420;BME280;6781;58.440;15.470;2023-05-19T07:35:01;102231.91;;;14.45;100.00
13420;BME280;6781;58.440;15.470;2023-05-19T07:37:28;102375.66;;;15.07;100.00
13420;BME280;6781;58.440;15.470;2023-05-19T07:39:55;102381.38;;;15.24;100.00
13420;BME280;6781;58.440;15.470;2023-05-19T07:42:22;102242.81;;;14.88;100.00
13420;BME280;6781;58.440;15.470;2023-05-19T07:44:49;102319.09;;;15.42;100.00
13420;BME280;6781;58.440;15.470;2023-05-19T07:47:20;102330.59;;;15.52;100.00
13420;BME280;6781;58.440;15.470;2023-05-19T07:49:47;102329.03;;;15.98;100.00
13420;BME280;6781;58.440;15.470;2023-05-19T07:52:16;102333.72;;;16.16;100.00
13420;BME280;6781;58.440;15.470;2023-05-19T07:54:52;102324.28;;;16.38;100.00
13420;BME280;6781;58.440;15.470;2023-05-19T07:57:20;102321.50;;;16.74;100.00
13420;BME280;6781;58.440;15.470;2023-05-19T07:59:47;102320.06;;;17.04;100.00
13420;BME280;6781;58.440;15.470;2023-05-19T08:02:18;102096.41;;;15.82;100.00
13420;BME280;6781;58.440;15.470;2023-05-19T08:04:45;102317.78;;;17.65;100.00
13420;BME280;6781;58.440;15.470;2023-05-19T08:07:15;102261.13;;;17.30;97.84
13420;BME280;6781;58.440;15.470;2023-05-19T08:09:44;102323.69;;;17.89;98.72
13420;BME280;6781;58.440;15.470;2023-05-19T08:12:12;102175.44;;;16.76;96.74
13420;BME280;6781;58.440;15.470;2023-05-19T08:14:38;102312.78;;;17.73;97.01
13420;BME280;6781;58.440;15.470;2023-05-19T08:17:05;102107.44;;;16.64;97.36
13420;BME280;6781;58.440;15.470;2023-05-19T08:23:02;102098.47;;;16.88;94.19
13420;BME280;6781;58.440;15.470;2023-05-19T08:25:31;102075.69;;;16.89;92.30
13420;BME280;6781;58.440;15.470;2023-05-19T08:28:39;102055.31;;;16.92;92.03
13420;BME280;6781;58.440;15.470;2023-05-19T08:31:20;102081.91;;;17.50;92.65
13420;BME280;6781;58.440;15.470;2023-05-19T08:33:47;102178.94;;;18.03;89.52
13420;BME280;6781;58.440;15.470;2023-05-19T08:36:15;102070.44;;;17.51;89.48
13420;BME280;6781;58.440;15.470;2023-05-19T08:38:44;102080.22;;;17.91;90.00
13420;BME280;6781;58.440;15.470;2023-05-19T08:41:11;102061.94;;;18.30;86.88
13420;BME280;6781;58.440;15.470;2023-05-19T08:43:38;102252.78;;;18.92;84.19
13420;BME280;6781;58.440;15.470;2023-05-19T08:46:05;102253.75;;;19.10;84.36
13420;BME280;6781;58.440;15.470;2023-05-19T08:48:34;102201.63;;;18.65;82.44
13420;BME280;6781;58.440;15.470;2023-05-19T08:51:09;102217.41;;;18.65;84.66
13420;BME280;6781;58.440;15.470;2023-05-19T08:53:39;102278.94;;;18.93;82.01
13420;BME280;6781;58.440;15.470;2023-05-19T08:56:13;102201.00;;;18.52;81.23
13420;BME280;6781;58.440;15.470;2023-05-19T08:58:43;102061.19;;;18.08;83.16
13420;BME280;6781;58.440;15.470;2023-05-19T09:01:13;102220.00;;;19.44;79.63
13420;BME280;6781;58.440;15.470;2023-05-19T09:03:42;102272.81;;;19.91;78.09
13420;BME280;6781;58.440;15.470;2023-05-19T09:06:09;102113.69;;;18.89;77.25
13420;BME280;6781;58.440;15.470;2023-05-19T09:08:38;102261.06;;;19.75;76.40
13420;BME280;6781;58.440;15.470;2023-05-19T09:11:08;102070.34;;;18.64;74.11
13420;BME280;6781;58.440;15.470;2023-05-19T09:13:37;102118.19;;;19.35;70.92
13420;BME280;6781;58.440;15.470;2023-05-19T09:16:04;102258.44;;;20.32;72.01
13420;BME280;6781;58.440;15.470;2023-05-19T09:18:37;102038.31;;;19.26;70.89
13420;BME280;6781;58.440;15.470;2023-05-19T09:21:05;102016.19;;;19.09;67.05
13420;BME280;6781;58.440;15.470;2023-05-19T09:23:32;102063.91;;;19.34;71.15
13420;BME280;6781;58.440;15.470;2023-05-19T09:26:01;102071.28;;;19.21;68.51
13420;BME280;6781;58.440;15.470;2023-05-19T09:28:30;102259.09;;;20.53;66.50
13420;BME280;6781;58.440;15.470;2023-05-19T09:31:01;102240.97;;;20.31;63.72
13420;BME280;6781;58.440;15.470;2023-05-19T09:33:28;102167.34;;;19.73;61.04
13420;BME280;6781;58.440;15.470;2023-05-19T09:35:56;102117.69;;;18.83;65.48
13420;BME280;6781;58.440;15.470;2023-05-19T09:38:23;102244.97;;;19.88;63.48
13420;BME280;6781;58.440;15.470;2023-05-19T09:40:51;102117.47;;;19.71;62.38
13420;BME280;6781;58.440;15.470;2023-05-19T09:43:20;102005.09;;;19.15;61.85
13420;BME280;6781;58.440;15.470;2023-05-19T09:45:47;102244.84;;;20.36;61.42
13420;BME280;6781;58.440;15.470;2023-05-19T09:48:19;101990.09;;;18.69;60.98
13420;BME280;6781;58.440;15.470;2023-05-19T09:50:47;102170.44;;;20.15;58.05
13420;BME280;6781;58.440;15.470;2023-05-19T09:53:18;102034.69;;;19.27;59.65
13420;BME280;6781;58.440;15.470;2023-05-19T09:55:45;101986.47;;;19.36;61.88
13420;BME280;6781;58.440;15.470;2023-05-19T09:58:15;102031.03;;;19.57;64.06
13420;BME280;6781;58.440;15.470;2023-05-19T10:00:44;102201.59;;;20.66;63.48
13420;BME280;6781;58.440;15.470;2023-05-19T10:03:12;102019.22;;;19.14;60.17
13420;BME280;6781;58.440;15.470;2023-05-19T10:05:44;102012.94;;;18.69;62.25
13420;BME280;6781;58.440;15.470;2023-05-19T10:11:01;102038.53;;;18.86;63.51
13420;BME280;6781;58.440;15.470;2023-05-19T10:13:40;101983.16;;;19.34;64.75
13420;BME280;6781;58.440;15.470;2023-05-19T10:16:09;102100.50;;;19.08;60.32
13420;BME280;6781;58.440;15.470;2023-05-19T10:18:37;102143.84;;;18.94;61.18
13420;BME280;6781;58.440;15.470;2023-05-19T10:21:07;102200.31;;;19.87;60.42
13420;BME280;6781;58.440;15.470;2023-05-19T10:23:35;102224.06;;;20.88;58.82
13420;BME280;6781;58.440;15.470;2023-05-19T10:26:03;101958.75;;;19.52;57.21
13420;BME280;6781;58.440;15.470;2023-05-19T10:28:35;102105.16;;;19.99;56.51
13420;BME280;6781;58.440;15.470;2023-05-19T10:31:08;101995.72;;;19.87;58.22
13420;BME280;6781;58.440;15.470;2023-05-19T10:33:47;102186.31;;;22.02;58.79
13420;BME280;6781;58.440;15.470;2023-05-19T10:36:43;102215.22;;;21.60;55.86
13420;BME280;6781;58.440;15.470;2023-05-19T10:39:15;102215.31;;;20.33;56.16
13420;BME280;6781;58.440;15.470;2023-05-19T10:41:49;102104.81;;;19.85;55.92
13420;BME280;6781;58.440;15.470;2023-05-19T10:44:28;102230.97;;;20.34;55.39
13420;BME280;6781;58.440;15.470;2023-05-19T10:46:57;102205.88;;;20.67;55.70
13420;BME280;6781;58.440;15.470;2023-05-19T10:49:24;102052.34;;;19.64;53.98
13420;BME280;6781;58.440;15.470;2023-05-19T10:51:54;102141.75;;;20.02;56.18
13420;BME280;6781;58.440;15.470;2023-05-19T10:54:39;102001.03;;;18.84;54.78
13420;BME280;6781;58.440;15.470;2023-05-19T10:57:07;102214.13;;;20.08;55.08
13420;BME280;6781;58.440;15.470;2023-05-19T10:59:36;102147.63;;;19.96;55.12
13420;BME280;6781;58.440;15.470;2023-05-19T11:05:29;102238.44;;;19.92;57.57
13420;BME280;6781;58.440;15.470;2023-05-19T11:07:59;102177.34;;;19.40;56.32
13420;BME280;6781;58.440;15.470;2023-05-19T11:10:28;102217.78;;;20.71;57.72
13420;BME280;6781;58.440;15.470;2023-05-19T11:12:57;102066.63;;;19.98;55.79
13420;BME280;6781;58.440;15.470;2023-05-19T11:15:25;102221.94;;;19.90;56.98
13420;BME280;6781;58.440;15.470;2023-05-19T11:17:55;101961.84;;;18.52;58.06
13420;BME280;6781;58.440;15.470;2023-05-19T11:20:23;102192.47;;;19.58;56.64
13420;BME280;6781;58.440;15.470;2023-05-19T11:23:05;102089.72;;;19.01;58.45
13420;BME280;6781;58.440;15.470;2023-05-19T11:25:46;102139.41;;;19.53;55.78
13420;BME280;6781;58.440;15.470;2023-05-19T11:28:15;102103.97;;;18.79;57.50
13420;BME280;6781;58.440;15.470;2023-05-19T11:30:47;101985.75;;;18.20;56.87
13420;BME280;6781;58.440;15.470;2023-05-19T11:33:16;102127.94;;;18.96;58.42
13420;BME280;6781;58.440;15.470;2023-05-19T11:35:49;102040.03;;;18.69;60.17
13420;BME280;6781;58.440;15.470;2023-05-19T11:38:18;102221.41;;;19.77;57.68
13420;BME280;6781;58.440;15.470;2023-05-19T11:40:51;102199.78;;;19.44;56.10
13420;BME280;6781;58.440;15.470;2023-05-19T11:43:18;102124.00;;;19.58;57.09
13420;BME280;6781;58.440;15.470;2023-05-19T11:45:48;102186.94;;;20.17;55.79
13420;BME280;6781;58.440;15.470;2023-05-19T11:48:15;102173.22;;;20.51;57.80
13420;BME280;6781;58.440;15.470;2023-05-19T11:50:42;102193.00;;;20.27;54.96
13420;BME280;6781;58.440;15.470;2023-05-19T11:53:11;102054.31;;;19.62;53.95
13420;BME280;6781;58.440;15.470;2023-05-19T11:55:44;102172.09;;;20.53;54.19
13420;BME280;6781;58.440;15.470;2023-05-19T11:58:12;101979.53;;;19.45;54.61
13420;BME280;6781;58.440;15.470;2023-05-19T12:00:40;102189.88;;;20.51;53.50
13420;BME280;6781;58.440;15.470;2023-05-19T12:03:07;102136.38;;;20.59;54.88
13420;BME280;6781;58.440;15.470;2023-05-19T12:05:41;102055.41;;;19.49;54.83
13420;BME280;6781;58.440;15.470;2023-05-19T12:08:08;102205.00;;;21.12;54.78
13420;BME280;6781;58.440;15.470;2023-05-19T12:10:36;102180.47;;;20.84;52.84
13420;BME280;6781;58.440;15.470;2023-05-19T12:13:05;102155.50;;;20.43;52.65
13420;BME280;6781;58.440;15.470;2023-05-19T12:15:34;102164.97;;;20.26;52.02
13420;BME280;6781;58.440;15.470;2023-05-19T12:18:01;102163.31;;;20.98;53.32
13420;BME280;6781;58.440;15.470;2023-05-19T12:20:29;102184.03;;;20.93;52.17
13420;BME280;6781;58.440;15.470;2023-05-19T12:23:00;102073.16;;;20.22;51.44
13420;BME280;6781;58.440;15.470;2023-05-19T12:25:27;102123.56;;;20.09;52.82
13420;BME280;6781;58.440;15.470;2023-05-19T12:27:56;102160.56;;;20.54;52.89
13420;BME280;6781;58.440;15.470;2023-05-19T12:30:27;102199.34;;;20.44;50.83
13420;BME280;6781;58.440;15.470;2023-05-19T12:32:55;102192.88;;;20.19;53.05
13420;BME280;6781;58.440;15.470;2023-05-19T12:35:25;102088.88;;;19.86;53.39
13420;BME280;6781;58.440;15.470;2023-05-19T12:37:53;102054.97;;;20.01;53.39
13420;BME280;6781;58.440;15.470;2023-05-19T12:40:20;102164.59;;;20.94;52.64
13420;BME280;6781;58.440;15.470;2023-05-19T12:42:48;102166.03;;;20.70;50.95
13420;BME280;6781;58.440;15.470;2023-05-19T12:45:19;102142.81;;;21.09;51.39
13420;BME280;6781;58.440;15.470;2023-05-19T12:47:50;102134.59;;;20.77;51.33
13420;BME280;6781;58.440;15.470;2023-05-19T12:50:17;102164.06;;;21.43;51.37
13420;BME280;6781;58.440;15.470;2023-05-19T12:52:45;102158.44;;;21.90;50.71
13420;BME280;6781;58.440;15.470;2023-05-19T12:55:13;102154.72;;;21.31;49.77
13420;BME280;6781;58.440;15.470;2023-05-19T12:57:42;102021.88;;;20.79;50.70
13420;BME280;6781;58.440;15.470;2023-05-19T13:00:13;102117.97;;;21.20;49.42
13420;BME280;6781;58.440;15.470;2023-05-19T13:03:00;102061.19;;;21.34;48.65
13420;BME280;6781;58.440;15.470;2023-05-19T13:05:30;102097.22;;;22.37;49.76
13420;BME280;6781;58.440;15.470;2023-05-19T13:07:59;102115.00;;;22.19;48.45
13420;BME280;6781;58.440;15.470;2023-05-19T13:10:27;102090.56;;;21.91;47.21
13420;BME280;6781;58.440;15.470;2023-05-19T13:12:55;102146.94;;;21.73;49.83